Time;durP1;ratioP1;P1;durP2;ratioP2;P2;SDS_P1;SDS_P2;PMS_P1;PMS_P2;Temp;Humidity;BMP_temperature;BMP_pressure;BME280_temperature;BME280_humidity;BME280_pressure;Samples;Min_cycle;Max_cycle;Signal;HPM_P1;HPM_P2
2023/03/31 00:02:15;;;;;;;21.45;13.50;;;11.60;99.90;;;;;;5012766;28;20032;-83
2023/03/31 00:04:45;;;;;;;21.40;13.57;;;11.60;99.90;;;;;;5013380;28;20026;-83
2023/03/31 00:07:15;;;;;;;20.17;13.63;;;11.60;99.90;;;;;;5006560;28;20079;-82
2023/03/31 00:09:44;;;;;;;20.80;13.80;;;11.60;99.90;;;;;;5018914;28;20488;-82
2023/03/31 00:12:12;;;;;;;19.48;12.80;;;11.60;99.90;;;;;;5007259;28;20667;-83
2023/03/31 00:14:38;;;;;;;23.10;14.05;;;11.60;99.90;;;;;;5011523;28;20480;-82
2023/03/31 00:17:03;;;;;;;25.25;14.02;;;11.60;99.90;;;;;;5002863;28;20041;-81
2023/03/31 00:19:32;;;;;;;19.67;13.60;;;11.60;99.90;;;;;;5008278;28;20041;-80
2023/03/31 00:22:00;;;;;;;19.05;13.18;;;11.50;99.90;;;;;;5001699;28;20045;-83
2023/03/31 00:24:27;;;;;;;19.65;12.77;;;11.60;99.90;;;;;;5004794;28;20030;-83
2023/03/31 00:26:53;;;;;;;21.55;13.88;;;11.50;99.90;;;;;;5009375;28;20036;-82
2023/03/31 00:29:19;;;;;;;25.25;14.90;;;11.50;99.90;;;;;;5020448;28;20025;-83
2023/03/31 00:31:45;;;;;;;26.27;14.30;;;11.50;99.90;;;;;;5008964;28;20450;-82
2023/03/31 00:34:10;;;;;;;25.95;14.73;;;11.50;99.90;;;;;;5004593;28;20036;-82
2023/03/31 00:36:46;;;;;;;22.58;13.32;;;11.50;99.90;;;;;;5003552;28;20075;-83
2023/03/31 00:39:14;;;;;;;20.83;13.13;;;11.50;99.90;;;;;;5019159;28;20025;-83
2023/03/31 00:41:40;;;;;;;17.63;12.93;;;11.50;99.90;;;;;;5013962;28;20034;-83
2023/03/31 00:44:17;;;;;;;19.48;13.35;;;11.50;99.90;;;;;;5009579;28;20053;-82
2023/03/31 00:46:46;;;;;;;25.05;14.10;;;11.50;99.90;;;;;;5006274;28;20484;-82
2023/03/31 00:49:24;;;;;;;22.77;14.38;;;11.50;99.90;;;;;;5016347;28;20044;-82
2023/03/31 00:51:53;;;;;;;20.08;13.55;;;11.50;99.90;;;;;;5010405;28;20480;-82
2023/03/31 00:54:20;;;;;;;18.33;11.95;;;11.50;99.90;;;;;;5008477;28;20034;-83
2023/03/31 00:56:47;;;;;;;25.05;14.27;;;11.40;99.90;;;;;;5006497;28;20041;-83
2023/03/31 00:59:14;;;;;;;20.73;14.15;;;11.40;99.90;;;;;;5010691;28;20033;-83
2023/03/31 01:01:43;;;;;;;21.17;15.23;;;11.40;99.90;;;;;;5014734;28;20083;-83
2023/03/31 01:04:12;;;;;;;25.73;14.30;;;11.40;99.90;;;;;;5009241;28;20424;-81
2023/03/31 01:06:45;;;;;;;18.95;13.20;;;11.40;99.90;;;;;;5003582;28;20041;-83
2023/03/31 01:09:12;;;;;;;22.63;14.27;;;11.40;99.90;;;;;;5005420;28;20108;-83
2023/03/31 01:11:39;;;;;;;19.17;13.45;;;11.30;99.90;;;;;;5016516;28;20037;-82
2023/03/31 01:14:05;;;;;;;20.05;13.85;;;11.40;99.90;;;;;;5002152;28;20036;-82
2023/03/31 01:16:32;;;;;;;24.52;13.98;;;11.30;99.90;;;;;;5013197;28;20041;-83
2023/03/31 01:18:58;;;;;;;22.70;14.32;;;11.30;99.90;;;;;;5015395;28;20120;-83
2023/03/31 01:22:11;;;;;;;23.67;13.82;;;11.20;99.90;;;;;;5005810;28;20084;-82
2023/03/31 01:25:00;;;;;;;20.40;13.13;;;11.20;99.90;;;;;;4987673;28;20053;-82
2023/03/31 01:27:58;;;;;;;22.88;13.57;;;11.30;99.90;;;;;;5006161;28;20037;-82
2023/03/31 01:30:42;;;;;;;18.27;12.90;;;11.30;99.90;;;;;;5009433;28;20042;-81
2023/03/31 01:34:04;;;;;;;20.45;13.20;;;11.30;99.90;;;;;;5009395;28;20029;-82
2023/03/31 01:36:51;;;;;;;23.35;13.25;;;11.30;99.90;;;;;;4992475;28;20105;-82
2023/03/31 01:39:20;;;;;;;25.27;14.02;;;11.40;99.90;;;;;;5006801;28;20505;-80
2023/03/31 01:42:06;;;;;;;22.08;14.07;;;11.40;99.90;;;;;;5020504;28;20040;-83
2023/03/31 01:44:42;;;;;;;19.73;13.65;;;11.30;99.90;;;;;;5008445;28;20045;-83
2023/03/31 01:47:44;;;;;;;24.10;14.20;;;11.40;99.90;;;;;;5012777;28;20032;-82
2023/03/31 01:50:23;;;;;;;20.38;13.05;;;11.40;99.90;;;;;;5015620;28;20423;-82
2023/03/31 01:52:55;;;;;;;22.17;13.80;;;11.30;99.90;;;;;;5010951;28;20029;-81
2023/03/31 01:55:31;;;;;;;24.77;14.32;;;11.40;99.90;;;;;;5007740;28;20388;-82
2023/03/31 01:58:05;;;;;;;22.67;13.80;;;11.30;99.90;;;;;;5013226;28;20030;-81
2023/03/31 02:00:41;;;;;;;23.52;14.75;;;11.20;99.90;;;;;;5008826;28;20503;-82
2023/03/31 02:03:33;;;;;;;26.20;15.27;;;11.20;99.90;;;;;;5009480;28;20030;-83
2023/03/31 02:06:07;;;;;;;24.98;15.15;;;11.20;99.90;;;;;;5008804;28;20034;-83
2023/03/31 02:08:58;;;;;;;22.92;14.18;;;11.20;99.90;;;;;;5009455;28;20388;-82
2023/03/31 02:11:25;;;;;;;26.80;14.88;;;11.10;99.90;;;;;;5010367;28;20495;-82
2023/03/31 02:13:53;;;;;;;20.42;13.88;;;11.20;99.90;;;;;;5007498;28;20091;-83
2023/03/31 02:16:24;;;;;;;24.35;15.48;;;11.20;99.90;;;;;;5010213;28;20037;-82
2023/03/31 02:18:53;;;;;;;22.15;14.95;;;11.20;99.90;;;;;;5006993;28;20034;-82
2023/03/31 02:21:21;;;;;;;24.77;14.70;;;11.20;99.90;;;;;;5012196;28;20045;-82
2023/03/31 02:23:50;;;;;;;20.77;14.32;;;11.20;99.90;;;;;;5008123;28;20030;-82
2023/03/31 02:26:22;;;;;;;20.40;13.52;;;11.20;99.90;;;;;;5008764;28;20503;-81
2023/03/31 02:28:48;;;;;;;27.90;15.30;;;11.20;99.90;;;;;;5007847;28;20018;-82
2023/03/31 02:31:32;;;;;;;21.05;14.38;;;11.10;99.90;;;;;;5018279;28;20026;-79
2023/03/31 02:33:57;;;;;;;20.70;14.07;;;11.20;99.90;;;;;;5008156;28;20033;-83
2023/03/31 02:36:24;;;;;;;25.27;15.13;;;11.20;99.90;;;;;;5010541;28;20228;-83
2023/03/31 02:39:05;;;;;;;21.77;14.52;;;11.20;99.90;;;;;;5018601;28;20527;-82
2023/03/31 02:41:31;;;;;;;22.42;15.38;;;11.20;99.90;;;;;;5009040;28;20037;-82
2023/03/31 02:43:57;;;;;;;19.83;12.98;;;11.20;99.90;;;;;;5010461;28;20099;-82
2023/03/31 02:46:24;;;;;;;22.25;15.02;;;11.10;99.90;;;;;;5023175;28;20108;-82
2023/03/31 02:48:54;;;;;;;30.10;15.85;;;11.20;99.90;;;;;;5005491;28;20025;-82
2023/03/31 02:51:34;;;;;;;20.83;13.60;;;11.20;99.90;;;;;;5016205;28;20054;-82
2023/03/31 02:54:27;;;;;;;25.20;14.60;;;11.20;99.90;;;;;;5006629;28;20030;-82
2023/03/31 02:57:18;;;;;;;23.92;15.32;;;11.20;99.90;;;;;;5004505;28;20033;-82
2023/03/31 03:00:18;;;;;;;18.83;13.52;;;11.30;99.90;;;;;;5005195;28;20435;-82
2023/03/31 03:02:56;;;;;;;24.33;14.23;;;11.20;99.90;;;;;;4992722;28;20046;-79
2023/03/31 03:05:21;;;;;;;21.05;13.32;;;11.20;99.90;;;;;;5009386;28;20092;-78
2023/03/31 03:08:05;;;;;;;28.33;16.15;;;11.20;99.90;;;;;;5006383;28;20053;-79
2023/03/31 03:10:57;;;;;;;21.92;14.32;;;11.20;99.90;;;;;;5003039;28;20110;-80
2023/03/31 03:13:42;;;;;;;28.17;15.18;;;11.20;99.90;;;;;;5007575;28;20033;-79
2023/03/31 03:16:26;;;;;;;24.50;14.48;;;11.20;99.90;;;;;;5002500;28;20046;-80
2023/03/31 03:19:00;;;;;;;29.63;13.77;;;11.20;99.90;;;;;;4996897;28;20117;-79
2023/03/31 03:21:26;;;;;;;19.83;13.27;;;11.20;99.90;;;;;;4999151;28;20030;-79
2023/03/31 03:23:53;;;;;;;25.58;16.02;;;11.30;99.90;;;;;;5001037;28;20025;-80
2023/03/31 03:26:26;;;;;;;25.20;14.52;;;11.20;99.90;;;;;;5002820;28;21560;-80
2023/03/31 03:28:54;;;;;;;20.08;14.50;;;11.40;99.90;;;;;;5001837;28;20112;-81
2023/03/31 03:31:22;;;;;;;23.38;14.35;;;11.40;99.90;;;;;;5011019;28;20033;-79
2023/03/31 03:33:49;;;;;;;20.67;13.45;;;11.40;99.90;;;;;;5012079;28;20021;-78
2023/03/31 03:36:15;;;;;;;22.77;14.23;;;11.30;99.90;;;;;;5006944;28;20030;-80
2023/03/31 03:38:41;;;;;;;23.60;14.60;;;11.20;99.90;;;;;;5001322;28;20075;-79
2023/03/31 03:41:06;;;;;;;27.52;14.30;;;11.20;99.90;;;;;;5003726;28;20040;-79
2023/03/31 03:43:32;;;;;;;19.75;13.30;;;11.10;99.90;;;;;;5003356;28;20129;-80
2023/03/31 03:45:58;;;;;;;28.50;14.15;;;11.10;99.90;;;;;;5007157;28;20048;-79
2023/03/31 03:48:24;;;;;;;33.28;14.05;;;11.10;99.90;;;;;;5000577;28;20104;-79
2023/03/31 03:50:50;;;;;;;21.67;15.57;;;11.20;99.90;;;;;;4999673;28;20037;-80
2023/03/31 03:53:15;;;;;;;22.40;13.77;;;11.10;99.90;;;;;;4999601;28;20495;-78
2023/03/31 03:55:41;;;;;;;22.83;14.52;;;11.10;99.90;;;;;;5000801;28;20028;-79
2023/03/31 03:58:07;;;;;;;25.60;13.93;;;11.00;99.90;;;;;;5001214;28;20030;-78
2023/03/31 04:00:32;;;;;;;24.40;14.68;;;11.10;99.90;;;;;;5005756;28;20103;-79
2023/03/31 04:02:58;;;;;;;24.52;14.05;;;11.20;99.90;;;;;;5002462;28;20496;-79
2023/03/31 04:05:24;;;;;;;21.65;13.95;;;11.20;99.90;;;;;;5002733;28;20037;-79
2023/03/31 04:07:50;;;;;;;23.63;13.68;;;11.20;99.90;;;;;;5001798;28;20411;-80
2023/03/31 04:10:15;;;;;;;19.85;13.15;;;11.20;99.90;;;;;;5003541;28;20034;-80
2023/03/31 04:12:41;;;;;;;24.65;14.23;;;11.20;99.90;;;;;;5000443;28;20201;-80
2023/03/31 04:15:07;;;;;;;22.48;15.10;;;11.20;99.90;;;;;;5001073;28;20029;-79
2023/03/31 04:17:33;;;;;;;21.40;14.73;;;11.20;99.90;;;;;;5002308;28;20032;-79
2023/03/31 04:20:10;;;;;;;23.65;15.15;;;11.20;99.90;;;;;;5004851;28;20029;-78
2023/03/31 04:22:39;;;;;;;26.33;15.43;;;11.20;99.90;;;;;;5013580;28;20494;-78
2023/03/31 04:25:15;;;;;;;24.27;14.45;;;11.20;99.90;;;;;;5001444;28;20032;-79
2023/03/31 04:27:49;;;;;;;21.55;14.43;;;11.10;99.90;;;;;;5009791;28;20575;-80
2023/03/31 04:30:22;;;;;;;21.73;15.18;;;11.10;99.90;;;;;;4999954;28;20192;-79
2023/03/31 04:32:49;;;;;;;25.35;16.63;;;11.00;99.90;;;;;;4996883;28;20130;-79
2023/03/31 04:35:19;;;;;;;26.60;15.80;;;11.00;99.90;;;;;;5010577;28;20053;-79
2023/03/31 04:37:51;;;;;;;24.25;15.18;;;11.00;99.90;;;;;;4999560;28;20031;-82
2023/03/31 04:40:17;;;;;;;24.80;15.07;;;11.10;99.90;;;;;;5002849;28;20099;-82
2023/03/31 04:42:44;;;;;;;23.92;16.73;;;11.00;99.90;;;;;;5003056;28;20468;-82
2023/03/31 04:45:13;;;;;;;24.75;15.90;;;11.00;99.90;;;;;;5003121;28;20049;-83
2023/03/31 04:47:38;;;;;;;28.73;17.63;;;11.10;99.90;;;;;;4997499;28;20030;-82
2023/03/31 04:50:05;;;;;;;33.13;16.10;;;11.10;99.90;;;;;;5013042;28;20396;-82
2023/03/31 04:52:30;;;;;;;25.08;15.85;;;11.20;99.90;;;;;;5004789;28;20212;-82
2023/03/31 04:54:56;;;;;;;22.52;14.55;;;11.20;99.90;;;;;;5007649;28;20662;-80
2023/03/31 04:57:22;;;;;;;21.88;15.23;;;11.20;99.90;;;;;;5000522;28;20042;-82
2023/03/31 04:59:47;;;;;;;29.88;17.50;;;11.10;99.90;;;;;;5001680;28;20467;-82
2023/03/31 05:02:14;;;;;;;30.52;17.45;;;11.00;99.90;;;;;;5006762;28;20026;-83
2023/03/31 05:04:40;;;;;;;29.38;15.57;;;11.00;99.90;;;;;;4998775;28;20530;-80
2023/03/31 05:07:06;;;;;;;26.23;15.68;;;11.10;99.90;;;;;;5013492;28;20038;-83
2023/03/31 05:09:31;;;;;;;27.05;16.27;;;11.10;99.90;;;;;;4997534;28;20034;-81
2023/03/31 05:11:57;;;;;;;25.17;15.90;;;11.00;99.90;;;;;;4988714;28;20030;-80
2023/03/31 05:14:23;;;;;;;34.65;16.40;;;11.00;99.90;;;;;;4997813;28;20103;-82
2023/03/31 05:16:48;;;;;;;28.95;17.13;;;11.00;99.90;;;;;;4999568;28;20026;-82
2023/03/31 05:19:14;;;;;;;24.63;14.57;;;11.00;99.90;;;;;;5002200;28;20034;-83
2023/03/31 05:21:39;;;;;;;21.50;14.40;;;11.00;99.90;;;;;;5003727;28;20025;-81
2023/03/31 05:24:05;;;;;;;21.75;15.43;;;11.00;99.90;;;;;;5006437;28;20034;-83
2023/03/31 05:26:31;;;;;;;25.90;15.70;;;11.00;99.90;;;;;;5006591;28;20030;-81
2023/03/31 05:28:57;;;;;;;23.92;16.40;;;11.10;99.90;;;;;;5008677;28;20073;-81
2023/03/31 05:31:22;;;;;;;27.88;16.17;;;11.00;99.90;;;;;;5008821;28;20124;-79
2023/03/31 05:33:48;;;;;;;31.90;16.63;;;11.00;99.90;;;;;;4997993;28;20035;-82
2023/03/31 05:36:15;;;;;;;31.10;16.88;;;11.10;99.90;;;;;;5009117;28;20037;-81
2023/03/31 05:38:42;;;;;;;20.88;14.40;;;11.00;99.90;;;;;;5008199;28;20030;-82
2023/03/31 05:41:08;;;;;;;24.67;15.65;;;11.10;99.90;;;;;;5007594;28;20040;-82
2023/03/31 05:43:38;;;;;;;25.90;16.08;;;11.10;99.90;;;;;;5008713;28;20042;-82
2023/03/31 05:46:05;;;;;;;25.63;15.13;;;11.00;99.90;;;;;;5009773;28;20093;-76
2023/03/31 05:48:31;;;;;;;26.65;16.67;;;11.00;99.90;;;;;;5011426;28;20030;-80
2023/03/31 05:51:00;;;;;;;24.90;16.05;;;11.00;99.90;;;;;;5007192;28;20038;-81
2023/03/31 05:53:26;;;;;;;27.48;16.25;;;11.10;99.90;;;;;;5022180;28;20503;-79
2023/03/31 05:56:00;;;;;;;27.02;15.80;;;11.10;99.90;;;;;;5005835;28;20033;-80
2023/03/31 05:58:27;;;;;;;26.55;15.13;;;11.10;99.90;;;;;;5002918;28;20025;-80
2023/03/31 06:01:06;;;;;;;21.10;14.43;;;11.10;99.90;;;;;;5007369;28;20049;-80
2023/03/31 06:03:33;;;;;;;23.55;14.70;;;11.20;99.90;;;;;;5008107;28;20119;-82
2023/03/31 06:06:00;;;;;;;25.67;15.65;;;11.20;99.90;;;;;;5011514;28;20057;-81
2023/03/31 06:08:27;;;;;;;26.00;16.88;;;11.10;99.90;;;;;;5018019;28;20381;-80
2023/03/31 06:10:52;;;;;;;29.70;16.83;;;11.20;99.90;;;;;;5004541;28;20049;-81
2023/03/31 06:13:19;;;;;;;26.05;15.95;;;11.20;99.90;;;;;;5009025;28;20021;-80
2023/03/31 06:15:53;;;;;;;26.67;16.55;;;11.20;99.90;;;;;;5001544;28;20034;-81
2023/03/31 06:18:18;;;;;;;24.23;16.10;;;11.30;99.90;;;;;;5003559;28;20034;-81
2023/03/31 06:20:44;;;;;;;30.70;16.70;;;11.20;99.90;;;;;;5003377;28;20083;-80
2023/03/31 06:23:10;;;;;;;26.80;16.73;;;11.10;99.90;;;;;;5003477;28;20048;-82
2023/03/31 06:25:37;;;;;;;33.85;18.63;;;11.10;99.90;;;;;;5010683;28;20065;-81
2023/03/31 06:28:03;;;;;;;27.40;16.92;;;11.20;99.90;;;;;;5010426;28;20507;-80
2023/03/31 06:30:29;;;;;;;23.45;16.35;;;11.20;99.90;;;;;;5002915;28;20076;-81
2023/03/31 06:32:54;;;;;;;27.10;16.80;;;11.20;99.90;;;;;;5009391;28;20041;-82
2023/03/31 06:35:20;;;;;;;30.88;16.45;;;11.20;99.90;;;;;;5002607;28;20037;-82
2023/03/31 06:37:46;;;;;;;24.83;14.88;;;11.20;99.90;;;;;;5006493;28;20053;-82
2023/03/31 06:40:12;;;;;;;23.92;14.43;;;11.20;99.90;;;;;;5003992;28;20022;-81
2023/03/31 06:42:37;;;;;;;24.55;16.02;;;11.20;99.90;;;;;;5003301;28;20034;-80
2023/03/31 06:45:03;;;;;;;28.83;16.30;;;11.20;99.90;;;;;;5003190;28;20048;-79
2023/03/31 06:47:29;;;;;;;23.42;15.15;;;11.20;99.90;;;;;;5003582;28;20061;-79
2023/03/31 06:49:54;;;;;;;28.00;16.73;;;11.20;99.90;;;;;;5001655;28;20038;-82
2023/03/31 06:52:20;;;;;;;30.15;15.93;;;11.20;99.90;;;;;;5002419;28;20040;-81
2023/03/31 06:54:46;;;;;;;36.35;17.50;;;11.20;99.90;;;;;;5000806;28;20063;-81
2023/03/31 06:57:12;;;;;;;29.88;16.98;;;11.10;99.90;;;;;;5003398;28;20483;-82
2023/03/31 06:59:37;;;;;;;31.10;17.00;;;11.10;99.90;;;;;;5013964;28;21065;-80
2023/03/31 07:02:03;;;;;;;29.13;17.48;;;11.10;99.90;;;;;;5008734;28;20128;-78
2023/03/31 07:04:29;;;;;;;37.28;17.42;;;11.10;99.90;;;;;;5003646;28;20041;-77
2023/03/31 07:06:56;;;;;;;26.67;16.60;;;11.20;99.90;;;;;;5001908;28;20068;-76
2023/03/31 07:09:22;;;;;;;30.23;17.35;;;11.20;99.90;;;;;;4997796;28;20104;-79
2023/03/31 07:11:48;;;;;;;34.03;18.25;;;11.20;99.90;;;;;;5013475;28;20033;-79
2023/03/31 07:14:14;;;;;;;27.17;17.27;;;11.20;99.90;;;;;;5012130;28;20124;-78
2023/03/31 07:16:40;;;;;;;30.27;18.98;;;11.10;99.90;;;;;;5009202;28;20120;-77
2023/03/31 07:19:06;;;;;;;29.77;17.77;;;11.10;99.90;;;;;;5013684;28;20029;-76
2023/03/31 07:21:33;;;;;;;31.10;18.80;;;11.00;99.90;;;;;;5005413;28;20033;-80
2023/03/31 07:23:58;;;;;;;26.58;17.92;;;11.00;99.90;;;;;;5014989;28;20475;-79
2023/03/31 07:26:25;;;;;;;30.38;17.95;;;11.00;99.90;;;;;;4998908;28;20026;-78
2023/03/31 07:28:53;;;;;;;29.27;18.02;;;11.00;99.90;;;;;;5000693;28;20032;-76
2023/03/31 07:31:19;;;;;;;32.47;19.02;;;11.10;99.90;;;;;;5001210;28;20695;-76
2023/03/31 07:33:45;;;;;;;26.38;18.00;;;11.10;99.90;;;;;;4998169;28;20046;-76
2023/03/31 07:36:11;;;;;;;28.23;18.55;;;11.10;99.90;;;;;;4999147;28;20411;-76
2023/03/31 07:38:37;;;;;;;28.60;18.27;;;11.20;99.90;;;;;;5002155;28;20022;-76
2023/03/31 07:41:02;;;;;;;32.33;16.73;;;11.10;99.90;;;;;;5008868;28;20030;-75
2023/03/31 07:43:28;;;;;;;25.65;17.05;;;11.10;99.90;;;;;;5012177;28;20060;-76
2023/03/31 07:45:53;;;;;;;26.58;18.55;;;11.10;99.90;;;;;;5001415;28;20103;-77
2023/03/31 07:48:19;;;;;;;27.85;18.20;;;11.10;99.90;;;;;;5001479;28;20100;-76
2023/03/31 07:50:45;;;;;;;31.65;18.77;;;11.10;99.90;;;;;;4999795;28;20046;-76
2023/03/31 07:53:13;;;;;;;32.00;19.35;;;11.10;99.90;;;;;;5002091;28;20033;-75
2023/03/31 07:55:39;;;;;;;31.15;18.60;;;11.20;99.90;;;;;;5006605;28;20542;-76
2023/03/31 07:58:05;;;;;;;28.83;17.10;;;11.20;99.90;;;;;;4999901;28;20045;-76
2023/03/31 08:00:31;;;;;;;31.42;17.80;;;11.30;99.90;;;;;;5001275;28;20029;-75
2023/03/31 08:02:56;;;;;;;30.65;18.13;;;11.30;99.90;;;;;;5008650;28;20034;-76
2023/03/31 08:05:22;;;;;;;25.77;18.23;;;11.20;99.90;;;;;;5001697;28;20037;-77
2023/03/31 08:07:50;;;;;;;28.88;18.40;;;11.10;99.90;;;;;;5000721;28;20077;-76
2023/03/31 08:10:20;;;;;;;29.77;17.70;;;11.10;99.90;;;;;;5011401;28;20061;-76
2023/03/31 08:12:45;;;;;;;33.22;20.67;;;11.10;99.90;;;;;;5001063;28;20467;-76
2023/03/31 08:15:11;;;;;;;30.02;17.25;;;11.20;99.90;;;;;;5006567;28;20025;-76
2023/03/31 08:17:37;;;;;;;27.65;18.15;;;11.30;99.90;;;;;;5001883;28;20053;-76
2023/03/31 08:20:09;;;;;;;31.77;17.88;;;11.30;99.90;;;;;;5003493;28;20030;-77
2023/03/31 08:22:35;;;;;;;30.83;19.42;;;11.40;99.90;;;;;;5007101;28;20030;-77
2023/03/31 08:25:01;;;;;;;33.65;18.10;;;11.50;99.90;;;;;;5000079;28;20037;-75
2023/03/31 08:27:27;;;;;;;32.72;18.02;;;11.50;99.90;;;;;;5002868;28;20041;-77
2023/03/31 08:29:53;;;;;;;28.08;18.20;;;11.60;99.90;;;;;;5003450;28;20468;-77
2023/03/31 08:32:23;;;;;;;28.80;18.55;;;11.60;99.90;;;;;;5003261;28;20030;-76
2023/03/31 08:34:48;;;;;;;31.77;20.38;;;11.50;99.90;;;;;;4999580;28;20104;-77
2023/03/31 08:37:14;;;;;;;31.65;18.63;;;11.60;99.90;;;;;;5000602;28;20395;-76
2023/03/31 08:39:40;;;;;;;30.83;17.80;;;11.60;99.90;;;;;;5011060;28;20475;-77
2023/03/31 08:42:40;;;;;;;30.88;19.60;;;11.60;99.90;;;;;;5009608;28;20231;-76
2023/03/31 08:45:29;;;;;;;27.65;17.67;;;11.60;99.90;;;;;;5021698;28;20042;-75
2023/03/31 08:48:02;;;;;;;29.42;17.85;;;11.50;99.90;;;;;;4998241;28;20167;-77
2023/03/31 08:50:32;;;;;;;36.53;21.10;;;11.40;99.90;;;;;;5000639;28;20041;-76
2023/03/31 08:53:41;;;;;;;34.25;20.10;;;11.40;99.90;;;;;;5000827;28;20029;-76
2023/03/31 08:56:14;;;;;;;29.77;19.08;;;11.50;99.90;;;;;;4996339;28;20042;-76
2023/03/31 08:58:46;;;;;;;33.58;20.55;;;11.70;99.90;;;;;;5000281;28;20026;-73
2023/03/31 09:01:37;;;;;;;33.05;19.40;;;11.70;99.90;;;;;;5001446;28;20436;-77
2023/03/31 09:04:46;;;;;;;31.50;19.88;;;11.80;99.90;;;;;;5009141;28;20034;-75
2023/03/31 09:07:37;;;;;;;25.05;17.65;;;11.90;99.90;;;;;;4998697;28;20037;-77
2023/03/31 09:10:40;;;;;;;28.50;18.73;;;11.80;99.90;;;;;;5000838;28;20374;-77
2023/03/31 09:13:05;;;;;;;30.17;18.88;;;11.80;99.90;;;;;;5005114;28;20065;-76
2023/03/31 09:15:44;;;;;;;29.77;19.42;;;11.70;99.90;;;;;;5008313;28;20065;-76
2023/03/31 09:18:36;;;;;;;31.77;20.38;;;11.70;99.90;;;;;;5004690;28;20037;-75
2023/03/31 09:21:11;;;;;;;32.75;18.33;;;11.70;99.90;;;;;;5010220;28;20022;-77
2023/03/31 09:23:56;;;;;;;30.15;19.75;;;11.90;99.90;;;;;;5000543;28;20033;-76
2023/03/31 09:26:43;;;;;;;27.23;17.88;;;12.00;99.90;;;;;;5001086;28;20049;-76
2023/03/31 09:29:18;;;;;;;31.58;18.35;;;12.00;99.90;;;;;;5005086;28;20072;-76
2023/03/31 09:31:44;;;;;;;35.58;19.08;;;12.00;99.90;;;;;;5010668;28;20025;-76
2023/03/31 09:34:16;;;;;;;29.25;18.13;;;12.10;99.90;;;;;;5010502;28;20034;-76
2023/03/31 09:36:42;;;;;;;32.60;18.67;;;12.10;99.90;;;;;;5009864;28;20045;-76
2023/03/31 09:39:12;;;;;;;26.73;17.95;;;12.10;99.90;;;;;;5011007;28;20480;-75
2023/03/31 09:41:42;;;;;;;31.80;18.98;;;12.20;99.90;;;;;;5003887;28;20033;-76
2023/03/31 09:44:22;;;;;;;30.45;19.35;;;12.20;99.90;;;;;;5002945;28;20050;-76
2023/03/31 09:46:49;;;;;;;30.42;19.45;;;12.10;99.90;;;;;;4999316;28;21037;-76
2023/03/31 09:49:19;;;;;;;29.50;18.20;;;12.10;99.90;;;;;;5002584;28;20054;-76
2023/03/31 09:51:48;;;;;;;30.52;18.55;;;12.20;99.90;;;;;;5000885;28;20080;-76
2023/03/31 09:54:37;;;;;;;26.70;18.58;;;12.30;99.90;;;;;;5009886;28;20026;-75
2023/03/31 09:57:13;;;;;;;31.05;19.70;;;12.20;99.90;;;;;;5002174;28;20034;-74
2023/03/31 09:59:40;;;;;;;32.05;18.25;;;12.10;99.90;;;;;;5012615;28;20127;-76
2023/03/31 10:02:32;;;;;;;34.65;20.35;;;12.10;99.90;;;;;;5005799;28;20479;-76
2023/03/31 10:04:58;;;;;;;28.23;18.27;;;12.00;99.90;;;;;;5007351;28;20117;-75
2023/03/31 10:07:25;;;;;;;28.95;18.75;;;11.90;99.90;;;;;;5010585;28;20121;-76
2023/03/31 10:09:53;;;;;;;33.28;20.58;;;11.80;99.90;;;;;;5011739;28;20073;-76
2023/03/31 10:12:24;;;;;;;31.60;20.20;;;11.80;99.90;;;;;;5012265;28;20514;-75
2023/03/31 10:14:52;;;;;;;32.28;19.75;;;11.80;99.90;;;;;;5006940;28;20112;-75
2023/03/31 10:17:21;;;;;;;28.85;19.67;;;11.90;99.90;;;;;;5007022;28;20506;-75
2023/03/31 10:19:50;;;;;;;27.80;20.05;;;12.00;99.90;;;;;;5020724;28;20047;-75
2023/03/31 10:22:30;;;;;;;34.13;19.48;;;11.90;99.90;;;;;;5007495;28;20033;-75
2023/03/31 10:25:19;;;;;;;29.38;19.55;;;12.00;99.90;;;;;;5018888;28;20607;-74
2023/03/31 10:27:50;;;;;;;35.70;19.73;;;12.00;99.90;;;;;;5004622;28;20026;-76
2023/03/31 10:30:27;;;;;;;30.27;18.80;;;12.00;99.90;;;;;;5012972;28;20117;-75
2023/03/31 10:32:53;;;;;;;32.58;18.23;;;12.10;99.90;;;;;;5010583;28;20032;-75
2023/03/31 10:35:33;;;;;;;36.38;20.10;;;12.00;99.90;;;;;;5007812;28;20506;-76
2023/03/31 10:38:15;;;;;;;28.67;20.45;;;11.90;99.90;;;;;;5006702;28;20129;-75
2023/03/31 10:40:50;;;;;;;30.75;17.92;;;12.00;99.90;;;;;;5008398;28;20084;-76
2023/03/31 10:43:33;;;;;;;29.30;19.23;;;12.00;99.90;;;;;;5005432;28;20156;-75
2023/03/31 10:46:00;;;;;;;24.92;14.55;;;12.00;99.90;;;;;;5003070;28;20022;-75
2023/03/31 10:48:29;;;;;;;24.70;15.40;;;11.90;99.90;;;;;;5001693;28;20188;-76
2023/03/31 10:51:10;;;;;;;27.55;15.60;;;12.00;99.90;;;;;;4998972;28;20038;-76
2023/03/31 10:53:42;;;;;;;23.85;14.43;;;12.00;99.90;;;;;;5005101;28;20489;-75
2023/03/31 10:56:42;;;;;;;24.85;13.55;;;12.00;99.90;;;;;;5017733;28;20026;-76
2023/03/31 10:59:40;;;;;;;22.77;13.75;;;12.10;99.90;;;;;;5001142;28;20049;-75
2023/03/31 11:02:37;;;;;;;24.58;13.65;;;12.20;99.90;;;;;;4998823;28;20129;-75
2023/03/31 11:05:25;;;;;;;25.73;15.30;;;12.30;99.90;;;;;;5014991;28;20034;-76
2023/03/31 11:08:09;;;;;;;22.95;14.77;;;12.30;99.90;;;;;;5005887;28;20045;-76
2023/03/31 11:10:39;;;;;;;24.27;13.48;;;12.30;99.90;;;;;;5015988;28;20041;-76
2023/03/31 11:13:31;;;;;;;20.85;12.65;;;12.30;99.90;;;;;;5006869;28;20048;-75
2023/03/31 11:16:32;;;;;;;22.13;13.30;;;12.40;99.90;;;;;;5008856;28;20030;-76
2023/03/31 11:19:15;;;;;;;31.45;18.73;;;12.50;99.90;;;;;;5002173;28;20115;-76
2023/03/31 11:22:20;;;;;;;29.45;17.73;;;12.50;99.90;;;;;;5000259;28;25563;-75
2023/03/31 11:25:27;;;;;;;30.60;17.13;;;12.50;99.90;;;;;;5010662;28;20082;-76
2023/03/31 11:28:15;;;;;;;27.27;14.48;;;12.50;99.90;;;;;;5002853;28;20033;-75
2023/03/31 11:30:56;;;;;;;21.63;11.93;;;12.50;99.90;;;;;;5007313;28;20040;-75
2023/03/31 11:33:34;;;;;;;21.23;12.38;;;12.60;99.90;;;;;;5002650;28;20072;-75
2023/03/31 11:36:21;;;;;;;19.45;11.52;;;12.70;99.90;;;;;;5010862;28;20054;-75
2023/03/31 11:38:55;;;;;;;17.80;9.75;;;12.80;99.90;;;;;;5010657;28;20503;-75
2023/03/31 11:41:44;;;;;;;16.88;10.32;;;12.90;99.90;;;;;;5010398;28;20025;-75
2023/03/31 11:44:15;;;;;;;17.50;10.95;;;12.80;99.90;;;;;;5010419;28;20041;-76
2023/03/31 11:46:53;;;;;;;19.67;12.23;;;12.90;99.90;;;;;;5003676;28;20030;-77
2023/03/31 11:49:37;;;;;;;23.38;11.07;;;12.80;99.90;;;;;;5005202;28;20357;-76
2023/03/31 11:52:14;;;;;;;19.20;10.88;;;12.80;99.90;;;;;;5004336;28;20460;-76
2023/03/31 11:55:14;;;;;;;19.05;9.77;;;12.80;99.90;;;;;;5010417;28;20033;-76
2023/03/31 11:57:48;;;;;;;22.77;11.10;;;12.80;99.90;;;;;;5008593;28;20654;-76
2023/03/31 12:00:25;;;;;;;18.10;10.95;;;12.90;99.90;;;;;;5007627;28;20136;-76
2023/03/31 12:03:06;;;;;;;19.45;9.43;;;13.10;99.90;;;;;;5015096;28;20201;-76
2023/03/31 12:05:35;;;;;;;16.17;9.70;;;13.10;99.90;;;;;;5015431;28;20037;-76
2023/03/31 12:08:01;;;;;;;14.40;6.85;;;13.20;99.90;;;;;;5001522;28;20049;-75
2023/03/31 12:10:40;;;;;;;13.35;5.25;;;13.20;99.90;;;;;;5007554;28;20080;-75
2023/03/31 12:13:43;;;;;;;10.18;5.32;;;13.40;99.90;;;;;;5017582;28;20495;-76
2023/03/31 12:16:15;;;;;;;11.00;7.00;;;13.40;99.90;;;;;;5002552;28;20033;-75
2023/03/31 12:19:09;;;;;;;13.95;5.10;;;13.40;99.90;;;;;;5006667;28;20033;-76
2023/03/31 12:21:37;;;;;;;6.80;2.42;;;13.50;99.90;;;;;;5007202;28;20038;-77
2023/03/31 12:24:03;;;;;;;13.65;3.60;;;13.70;99.80;;;;;;5013601;28;20029;-76
2023/03/31 12:26:49;;;;;;;9.88;2.33;;;13.60;99.60;;;;;;5001079;28;20393;-77
2023/03/31 12:29:34;;;;;;;6.72;2.30;;;13.60;99.70;;;;;;5005572;28;20042;-77
2023/03/31 12:32:23;;;;;;;6.55;2.33;;;13.60;99.60;;;;;;4998073;28;20033;-76
2023/03/31 12:35:11;;;;;;;13.45;5.65;;;13.60;99.40;;;;;;5007189;28;20048;-77
2023/03/31 12:37:43;;;;;;;14.05;9.40;;;13.60;99.40;;;;;;5000034;28;20030;-77
2023/03/31 12:40:13;;;;;;;8.07;3.17;;;13.50;99.40;;;;;;5001023;28;20046;-76
2023/03/31 12:42:54;;;;;;;11.10;2.50;;;13.50;99.40;;;;;;5011082;28;20455;-77
2023/03/31 12:45:28;;;;;;;7.00;1.58;;;13.50;99.20;;;;;;5013048;28;20065;-79
2023/03/31 12:48:18;;;;;;;4.30;1.35;;;13.50;98.90;;;;;;5008258;28;20025;-78
2023/03/31 12:51:01;;;;;;;5.07;1.50;;;13.40;99.10;;;;;;5004727;28;20100;-80
2023/03/31 12:53:58;;;;;;;6.20;2.50;;;13.50;99.10;;;;;;5002024;28;20038;-79
2023/03/31 12:56:24;;;;;;;6.57;2.03;;;13.50;99.10;;;;;;5000395;28;20034;-80
2023/03/31 12:58:50;;;;;;;12.05;2.78;;;13.40;99.10;;;;;;5002004;28;20115;-79